sensor_id;sensor_type;location;lat;lon;timestamp;temperature;humidity
4755;DHT22;2391;47.212;7.542;2023-04-24T00:00:11;12.20;99.90
4755;DHT22;2391;47.212;7.542;2023-04-24T00:02:39;12.10;99.90
4755;DHT22;2391;47.212;7.542;2023-04-24T00:05:07;12.00;99.90
4755;DHT22;2391;47.212;7.542;2023-04-24T00:07:33;12.00;99.90
4755;DHT22;2391;47.212;7.542;2023-04-24T00:09:59;12.00;99.90
4755;DHT22;2391;47.212;7.542;2023-04-24T00:12:26;12.00;99.90
4755;DHT22;2391;47.212;7.542;2023-04-24T00:14:52;12.20;99.90
4755;DHT22;2391;47.212;7.542;2023-04-24T00:17:18;12.10;99.90
4755;DHT22;2391;47.212;7.542;2023-04-24T00:19:46;12.20;99.90
4755;DHT22;2391;47.212;7.542;2023-04-24T00:22:12;12.20;99.90
4755;DHT22;2391;47.212;7.542;2023-04-24T00:24:39;12.20;99.90
4755;DHT22;2391;47.212;7.542;2023-04-24T00:27:05;12.20;99.90
4755;DHT22;2391;47.212;7.542;2023-04-24T00:29:30;12.20;99.90
4755;DHT22;2391;47.212;7.542;2023-04-24T00:31:56;12.30;99.90
4755;DHT22;2391;47.212;7.542;2023-04-24T00:34:22;12.30;99.90
4755;DHT22;2391;47.212;7.542;2023-04-24T00:36:48;12.30;99.90
4755;DHT22;2391;47.212;7.542;2023-04-24T00:39:18;12.20;99.90
4755;DHT22;2391;47.212;7.542;2023-04-24T00:41:45;12.00;99.90
4755;DHT22;2391;47.212;7.542;2023-04-24T00:44:11;11.90;99.90
4755;DHT22;2391;47.212;7.542;2023-04-24T00:46:37;11.90;99.90
4755;DHT22;2391;47.212;7.542;2023-04-24T00:49:04;11.90;99.90
4755;DHT22;2391;47.212;7.542;2023-04-24T00:51:32;11.90;99.90
4755;DHT22;2391;47.212;7.542;2023-04-24T00:53:59;11.80;99.90
4755;DHT22;2391;47.212;7.542;2023-04-24T00:56:25;11.70;99.90
4755;DHT22;2391;47.212;7.542;2023-04-24T00:58:51;11.70;99.90
4755;DHT22;2391;47.212;7.542;2023-04-24T01:01:19;11.80;99.90
4755;DHT22;2391;47.212;7.542;2023-04-24T01:03:46;11.90;99.90
4755;DHT22;2391;47.212;7.542;2023-04-24T01:06:13;11.90;99.90
4755;DHT22;2391;47.212;7.542;2023-04-24T01:08:39;11.90;99.90
4755;DHT22;2391;47.212;7.542;2023-04-24T01:11:05;12.00;99.90
4755;DHT22;2391;47.212;7.542;2023-04-24T01:13:32;12.10;99.90
4755;DHT22;2391;47.212;7.542;2023-04-24T01:15:58;12.20;99.90
4755;DHT22;2391;47.212;7.542;2023-04-24T01:18:24;12.30;99.90
4755;DHT22;2391;47.212;7.542;2023-04-24T01:20:57;12.30;99.90
4755;DHT22;2391;47.212;7.542;2023-04-24T01:23:22;12.30;99.90
4755;DHT22;2391;47.212;7.542;2023-04-24T01:25:49;12.20;99.90
4755;DHT22;2391;47.212;7.542;2023-04-24T01:28:16;12.10;99.90
4755;DHT22;2391;47.212;7.542;2023-04-24T01:30:43;12.10;99.90
4755;DHT22;2391;47.212;7.542;2023-04-24T01:33:09;12.10;99.90
4755;DHT22;2391;47.212;7.542;2023-04-24T01:35:37;12.10;99.90
4755;DHT22;2391;47.212;7.542;2023-04-24T01:38:03;12.20;99.90
4755;DHT22;2391;47.212;7.542;2023-04-24T01:40:31;12.20;99.90
4755;DHT22;2391;47.212;7.542;2023-04-24T01:42:58;12.20;99.90
4755;DHT22;2391;47.212;7.542;2023-04-24T01:45:24;12.30;99.90
4755;DHT22;2391;47.212;7.542;2023-04-24T01:47:50;12.30;99.90
4755;DHT22;2391;47.212;7.542;2023-04-24T01:50:17;12.20;99.90
4755;DHT22;2391;47.212;7.542;2023-04-24T01:52:43;12.10;99.90
4755;DHT22;2391;47.212;7.542;2023-04-24T01:55:10;12.20;99.90
4755;DHT22;2391;47.212;7.542;2023-04-24T01:57:36;12.20;99.90
4755;DHT22;2391;47.212;7.542;2023-04-24T02:00:03;12.30;99.90
4755;DHT22;2391;47.212;7.542;2023-04-24T02:02:31;12.30;99.90
4755;DHT22;2391;47.212;7.542;2023-04-24T02:04:57;12.30;99.90
4755;DHT22;2391;47.212;7.542;2023-04-24T02:07:23;12.30;99.90
4755;DHT22;2391;47.212;7.542;2023-04-24T02:09:48;12.30;99.90
4755;DHT22;2391;47.212;7.542;2023-04-24T02:12:15;12.30;99.90
4755;DHT22;2391;47.212;7.542;2023-04-24T02:14:44;12.30;99.90
4755;DHT22;2391;47.212;7.542;2023-04-24T02:17:10;12.30;99.90
4755;DHT22;2391;47.212;7.542;2023-04-24T02:19:37;12.20;99.90
4755;DHT22;2391;47.212;7.542;2023-04-24T02:22:03;12.20;99.90
4755;DHT22;2391;47.212;7.542;2023-04-24T02:24:29;12.30;99.90
4755;DHT22;2391;47.212;7.542;2023-04-24T02:26:54;12.40;99.90
4755;DHT22;2391;47.212;7.542;2023-04-24T02:29:21;12.30;99.90
4755;DHT22;2391;47.212;7.542;2023-04-24T02:31:47;12.30;99.90
4755;DHT22;2391;47.212;7.542;2023-04-24T02:34:13;12.30;99.90
4755;DHT22;2391;47.212;7.542;2023-04-24T02:36:41;12.20;99.90
4755;DHT22;2391;47.212;7.542;2023-04-24T02:39:07;12.20;99.90
4755;DHT22;2391;47.212;7.542;2023-04-24T02:41:33;12.30;99.90
4755;DHT22;2391;47.212;7.542;2023-04-24T02:43:59;12.30;99.90
4755;DHT22;2391;47.212;7.542;2023-04-24T02:46:25;12.40;99.90
4755;DHT22;2391;47.212;7.542;2023-04-24T02:48:51;12.50;99.90
4755;DHT22;2391;47.212;7.542;2023-04-24T02:51:16;12.50;99.90
4755;DHT22;2391;47.212;7.542;2023-04-24T02:53:42;12.40;99.90
4755;DHT22;2391;47.212;7.542;2023-04-24T02:56:08;12.40;99.90
4755;DHT22;2391;47.212;7.542;2023-04-24T02:58:34;12.30;99.90
4755;DHT22;2391;47.212;7.542;2023-04-24T03:01:01;12.20;99.90
4755;DHT22;2391;47.212;7.542;2023-04-24T03:03:26;12.20;99.90
4755;DHT22;2391;47.212;7.542;2023-04-24T03:05:52;12.30;99.90
4755;DHT22;2391;47.212;7.542;2023-04-24T03:08:18;12.30;99.90
4755;DHT22;2391;47.212;7.542;2023-04-24T03:10:44;12.30;99.90
4755;DHT22;2391;47.212;7.542;2023-04-24T03:13:09;12.30;99.90
4755;DHT22;2391;47.212;7.542;2023-04-24T03:15:35;12.30;99.90
4755;DHT22;2391;47.212;7.542;2023-04-24T03:18:01;12.40;99.90
4755;DHT22;2391;47.212;7.542;2023-04-24T03:20:28;12.40;99.90
4755;DHT22;2391;47.212;7.542;2023-04-24T03:22:54;12.40;99.90
4755;DHT22;2391;47.212;7.542;2023-04-24T03:25:20;12.40;99.90
4755;DHT22;2391;47.212;7.542;2023-04-24T03:27:45;12.40;99.90
4755;DHT22;2391;47.212;7.542;2023-04-24T03:30:11;12.50;99.90
4755;DHT22;2391;47.212;7.542;2023-04-24T03:32:37;12.50;99.90
4755;DHT22;2391;47.212;7.542;2023-04-24T03:35:06;12.60;99.90
4755;DHT22;2391;47.212;7.542;2023-04-24T03:37:34;12.60;99.90
4755;DHT22;2391;47.212;7.542;2023-04-24T03:40:00;12.60;99.90
4755;DHT22;2391;47.212;7.542;2023-04-24T03:42:26;12.40;99.90
4755;DHT22;2391;47.212;7.542;2023-04-24T03:44:52;12.30;99.90
4755;DHT22;2391;47.212;7.542;2023-04-24T03:47:17;12.30;99.90
4755;DHT22;2391;47.212;7.542;2023-04-24T03:49:43;12.20;99.90
4755;DHT22;2391;47.212;7.542;2023-04-24T03:52:09;12.30;99.90
4755;DHT22;2391;47.212;7.542;2023-04-24T03:54:35;12.30;99.90
4755;DHT22;2391;47.212;7.542;2023-04-24T03:57:00;12.40;99.90
4755;DHT22;2391;47.212;7.542;2023-04-24T03:59:31;12.30;99.90
4755;DHT22;2391;47.212;7.542;2023-04-24T04:01:57;12.20;99.90
4755;DHT22;2391;47.212;7.542;2023-04-24T04:04:22;12.20;99.90
4755;DHT22;2391;47.212;7.542;2023-04-24T04:06:48;12.10;99.90
4755;DHT22;2391;47.212;7.542;2023-04-24T04:09:15;12.00;99.90
4755;DHT22;2391;47.212;7.542;2023-04-24T04:11:41;12.00;99.90
4755;DHT22;2391;47.212;7.542;2023-04-24T04:14:07;12.00;99.90
4755;DHT22;2391;47.212;7.542;2023-04-24T04:16:32;12.00;99.90
4755;DHT22;2391;47.212;7.542;2023-04-24T04:18:58;12.00;99.90
4755;DHT22;2391;47.212;7.542;2023-04-24T04:21:24;12.00;99.90
4755;DHT22;2391;47.212;7.542;2023-04-24T04:23:50;12.00;99.90
4755;DHT22;2391;47.212;7.542;2023-04-24T04:26:16;11.90;99.90
4755;DHT22;2391;47.212;7.542;2023-04-24T04:28:42;11.90;99.90
4755;DHT22;2391;47.212;7.542;2023-04-24T04:31:09;11.90;99.90
4755;DHT22;2391;47.212;7.542;2023-04-24T04:33:35;11.80;99.90
4755;DHT22;2391;47.212;7.542;2023-04-24T04:36:03;11.80;99.90
4755;DHT22;2391;47.212;7.542;2023-04-24T04:38:29;11.80;99.90
4755;DHT22;2391;47.212;7.542;2023-04-24T04:40:55;11.70;99.90
4755;DHT22;2391;47.212;7.542;2023-04-24T04:43:30;11.70;99.90
4755;DHT22;2391;47.212;7.542;2023-04-24T04:45:58;11.70;99.90
4755;DHT22;2391;47.212;7.542;2023-04-24T04:48:23;11.70;99.90
4755;DHT22;2391;47.212;7.542;2023-04-24T04:50:49;11.70;99.90
4755;DHT22;2391;47.212;7.542;2023-04-24T04:53:15;11.70;99.90
4755;DHT22;2391;47.212;7.542;2023-04-24T04:55:41;11.80;99.90
4755;DHT22;2391;47.212;7.542;2023-04-24T04:58:06;11.90;99.90
4755;DHT22;2391;47.212;7.542;2023-04-24T05:00:32;12.10;99.90
4755;DHT22;2391;47.212;7.542;2023-04-24T05:03:00;12.10;99.90
4755;DHT22;2391;47.212;7.542;2023-04-24T05:05:26;12.20;99.90
4755;DHT22;2391;47.212;7.542;2023-04-24T05:07:52;12.30;99.90
4755;DHT22;2391;47.212;7.542;2023-04-24T05:10:18;12.30;99.90
4755;DHT22;2391;47.212;7.542;2023-04-24T05:12:43;12.30;99.90
4755;DHT22;2391;47.212;7.542;2023-04-24T05:15:10;12.40;99.90
4755;DHT22;2391;47.212;7.542;2023-04-24T05:17:36;12.50;99.90
4755;DHT22;2391;47.212;7.542;2023-04-24T05:20:02;12.50;99.90
4755;DHT22;2391;47.212;7.542;2023-04-24T05:22:30;12.50;99.90
4755;DHT22;2391;47.212;7.542;2023-04-24T05:24:56;12.60;99.90
4755;DHT22;2391;47.212;7.542;2023-04-24T05:27:22;12.60;99.90
4755;DHT22;2391;47.212;7.542;2023-04-24T05:29:48;12.70;99.90
4755;DHT22;2391;47.212;7.542;2023-04-24T05:32:14;12.80;99.90
4755;DHT22;2391;47.212;7.542;2023-04-24T05:34:39;12.90;99.90
4755;DHT22;2391;47.212;7.542;2023-04-24T05:37:05;13.00;99.90
4755;DHT22;2391;47.212;7.542;2023-04-24T05:39:33;13.00;99.90
4755;DHT22;2391;47.212;7.542;2023-04-24T05:41:59;13.10;99.90
4755;DHT22;2391;47.212;7.542;2023-04-24T05:44:26;13.20;99.90
4755;DHT22;2391;47.212;7.542;2023-04-24T05:46:52;13.30;99.90
4755;DHT22;2391;47.212;7.542;2023-04-24T05:49:18;13.30;99.90
4755;DHT22;2391;47.212;7.542;2023-04-24T05:51:44;13.40;99.90
4755;DHT22;2391;47.212;7.542;2023-04-24T05:54:10;13.40;99.90
4755;DHT22;2391;47.212;7.542;2023-04-24T05:56:38;13.40;99.90
4755;DHT22;2391;47.212;7.542;2023-04-24T05:59:04;13.40;99.90
4755;DHT22;2391;47.212;7.542;2023-04-24T06:01:30;13.30;99.90
4755;DHT22;2391;47.212;7.542;2023-04-24T06:03:57;13.30;99.90
4755;DHT22;2391;47.212;7.542;2023-04-24T06:06:23;13.30;99.90
4755;DHT22;2391;47.212;7.542;2023-04-24T06:08:49;13.20;99.90
4755;DHT22;2391;47.212;7.542;2023-04-24T06:11:15;13.10;99.90
4755;DHT22;2391;47.212;7.542;2023-04-24T06:13:41;12.90;99.90
4755;DHT22;2391;47.212;7.542;2023-04-24T06:16:07;12.80;99.90
4755;DHT22;2391;47.212;7.542;2023-04-24T06:18:33;12.70;99.90
4755;DHT22;2391;47.212;7.542;2023-04-24T06:20:59;12.70;99.90
4755;DHT22;2391;47.212;7.542;2023-04-24T06:23:24;12.70;99.90
4755;DHT22;2391;47.212;7.542;2023-04-24T06:25:50;12.70;99.90
4755;DHT22;2391;47.212;7.542;2023-04-24T06:28:17;12.70;99.90
4755;DHT22;2391;47.212;7.542;2023-04-24T06:30:42;12.70;99.90
4755;DHT22;2391;47.212;7.542;2023-04-24T06:33:09;12.70;99.90
4755;DHT22;2391;47.212;7.542;2023-04-24T06:35:35;12.60;99.90
4755;DHT22;2391;47.212;7.542;2023-04-24T06:38:01;12.60;99.90
4755;DHT22;2391;47.212;7.542;2023-04-24T06:40:27;12.70;99.90
4755;DHT22;2391;47.212;7.542;2023-04-24T06:42:53;12.80;99.90
4755;DHT22;2391;47.212;7.542;2023-04-24T06:45:19;13.00;99.90
4755;DHT22;2391;47.212;7.542;2023-04-24T06:47:44;13.20;99.90
4755;DHT22;2391;47.212;7.542;2023-04-24T06:50:10;13.30;99.90
4755;DHT22;2391;47.212;7.542;2023-04-24T06:52:37;13.40;99.90
4755;DHT22;2391;47.212;7.542;2023-04-24T06:55:03;13.30;99.90
4755;DHT22;2391;47.212;7.542;2023-04-24T06:57:29;13.20;99.90
4755;DHT22;2391;47.212;7.542;2023-04-24T06:59:55;13.00;99.90
4755;DHT22;2391;47.212;7.542;2023-04-24T07:02:21;12.80;99.90
4755;DHT22;2391;47.212;7.542;2023-04-24T07:04:47;12.80;99.90
4755;DHT22;2391;47.212;7.542;2023-04-24T07:07:13;12.60;99.90
4755;DHT22;2391;47.212;7.542;2023-04-24T07:09:41;12.60;99.90
4755;DHT22;2391;47.212;7.542;2023-04-24T07:12:08;12.60;99.90
4755;DHT22;2391;47.212;7.542;2023-04-24T07:14:39;12.60;99.90
4755;DHT22;2391;47.212;7.542;2023-04-24T07:17:05;12.60;99.10
4755;DHT22;2391;47.212;7.542;2023-04-24T07:19:33;12.50;98.70
4755;DHT22;2391;47.212;7.542;2023-04-24T07:22:01;12.40;98.70
4755;DHT22;2391;47.212;7.542;2023-04-24T07:24:27;12.50;98.90
4755;DHT22;2391;47.212;7.542;2023-04-24T07:26:53;12.50;98.60
4755;DHT22;2391;47.212;7.542;2023-04-24T07:29:19;12.50;98.20
4755;DHT22;2391;47.212;7.542;2023-04-24T07:31:46;12.50;97.50
4755;DHT22;2391;47.212;7.542;2023-04-24T07:34:12;12.50;97.00
4755;DHT22;2391;47.212;7.542;2023-04-24T07:36:38;12.40;97.30
4755;DHT22;2391;47.212;7.542;2023-04-24T07:39:05;12.30;97.00
4755;DHT22;2391;47.212;7.542;2023-04-24T07:41:31;12.30;97.20
4755;DHT22;2391;47.212;7.542;2023-04-24T07:43:58;12.40;97.40
4755;DHT22;2391;47.212;7.542;2023-04-24T07:46:24;12.60;96.90
4755;DHT22;2391;47.212;7.542;2023-04-24T07:48:50;12.80;96.70
4755;DHT22;2391;47.212;7.542;2023-04-24T07:51:16;13.00;95.60
4755;DHT22;2391;47.212;7.542;2023-04-24T07:53:43;13.10;95.00
4755;DHT22;2391;47.212;7.542;2023-04-24T07:56:09;13.10;95.10
4755;DHT22;2391;47.212;7.542;2023-04-24T07:58:35;13.10;94.50
4755;DHT22;2391;47.212;7.542;2023-04-24T08:01:00;13.00;94.80
4755;DHT22;2391;47.212;7.542;2023-04-24T08:03:26;12.90;94.40
4755;DHT22;2391;47.212;7.542;2023-04-24T08:05:52;12.80;94.40
4755;DHT22;2391;47.212;7.542;2023-04-24T08:08:20;12.80;95.00
4755;DHT22;2391;47.212;7.542;2023-04-24T08:10:47;12.70;95.40
4755;DHT22;2391;47.212;7.542;2023-04-24T08:13:12;12.70;95.50
4755;DHT22;2391;47.212;7.542;2023-04-24T08:15:38;12.60;95.80
4755;DHT22;2391;47.212;7.542;2023-04-24T08:18:04;12.50;96.00
4755;DHT22;2391;47.212;7.542;2023-04-24T08:20:30;12.40;96.30
4755;DHT22;2391;47.212;7.542;2023-04-24T08:22:56;12.30;96.70
4755;DHT22;2391;47.212;7.542;2023-04-24T08:25:22;12.30;96.90
4755;DHT22;2391;47.212;7.542;2023-04-24T08:27:49;12.30;97.40
4755;DHT22;2391;47.212;7.542;2023-04-24T08:30:14;12.20;97.40
4755;DHT22;2391;47.212;7.542;2023-04-24T08:32:40;12.20;97.40
4755;DHT22;2391;47.212;7.542;2023-04-24T08:35:07;12.20;97.60
4755;DHT22;2391;47.212;7.542;2023-04-24T08:37:35;12.30;97.90
4755;DHT22;2391;47.212;7.542;2023-04-24T08:40:05;12.40;97.90
4755;DHT22;2391;47.212;7.542;2023-04-24T08:42:33;12.60;96.50
4755;DHT22;2391;47.212;7.542;2023-04-24T08:44:59;12.70;96.10
4755;DHT22;2391;47.212;7.542;2023-04-24T08:47:25;12.80;94.50
4755;DHT22;2391;47.212;7.542;2023-04-24T08:49:54;12.70;94.80
4755;DHT22;2391;47.212;7.542;2023-04-24T08:52:20;12.60;94.60
4755;DHT22;2391;47.212;7.542;2023-04-24T08:54:48;12.50;94.80
4755;DHT22;2391;47.212;7.542;2023-04-24T08:57:14;12.40;94.70
4755;DHT22;2391;47.212;7.542;2023-04-24T08:59:40;12.30;94.60
4755;DHT22;2391;47.212;7.542;2023-04-24T09:02:09;12.20;94.90
4755;DHT22;2391;47.212;7.542;2023-04-24T09:04:37;12.10;95.00
4755;DHT22;2391;47.212;7.542;2023-04-24T09:07:03;12.10;95.40
4755;DHT22;2391;47.212;7.542;2023-04-24T09:09:32;12.00;95.00
4755;DHT22;2391;47.212;7.542;2023-04-24T09:11:58;12.10;95.50
4755;DHT22;2391;47.212;7.542;2023-04-24T09:14:24;12.10;96.00
4755;DHT22;2391;47.212;7.542;2023-04-24T09:16:51;12.30;96.80
4755;DHT22;2391;47.212;7.542;2023-04-24T09:19:16;12.50;96.80
4755;DHT22;2391;47.212;7.542;2023-04-24T09:21:47;12.70;96.20
4755;DHT22;2391;47.212;7.542;2023-04-24T09:24:18;12.90;95.40
4755;DHT22;2391;47.212;7.542;2023-04-24T09:26:45;13.10;95.90
4755;DHT22;2391;47.212;7.542;2023-04-24T09:29:18;13.30;95.00
4755;DHT22;2391;47.212;7.542;2023-04-24T09:31:45;13.50;94.20
4755;DHT22;2391;47.212;7.542;2023-04-24T09:34:11;13.70;94.70
4755;DHT22;2391;47.212;7.542;2023-04-24T09:36:39;13.90;93.50
4755;DHT22;2391;47.212;7.542;2023-04-24T09:39:15;14.00;93.50
4755;DHT22;2391;47.212;7.542;2023-04-24T09:41:48;14.10;93.70
4755;DHT22;2391;47.212;7.542;2023-04-24T09:47:01;14.50;93.00
4755;DHT22;2391;47.212;7.542;2023-04-24T09:49:19;14.60;92.30
4755;DHT22;2391;47.212;7.542;2023-04-24T09:51:44;14.60;92.90
4755;DHT22;2391;47.212;7.542;2023-04-24T09:54:17;14.70;92.80
4755;DHT22;2391;47.212;7.542;2023-04-24T09:56:50;14.70;92.40
4755;DHT22;2391;47.212;7.542;2023-04-24T09:59:15;14.80;92.70
4755;DHT22;2391;47.212;7.542;2023-04-24T10:01:41;14.80;92.90
4755;DHT22;2391;47.212;7.542;2023-04-24T10:06:47;15.00;92.10
4755;DHT22;2391;47.212;7.542;2023-04-24T10:09:19;15.10;92.60
4755;DHT22;2391;47.212;7.542;2023-04-24T10:11:47;15.00;92.30
4755;DHT22;2391;47.212;7.542;2023-04-24T10:14:15;15.00;92.10
4755;DHT22;2391;47.212;7.542;2023-04-24T10:16:42;15.00;91.60
4755;DHT22;2391;47.212;7.542;2023-04-24T10:19:08;14.90;92.00
4755;DHT22;2391;47.212;7.542;2023-04-24T10:21:34;14.90;92.00
4755;DHT22;2391;47.212;7.542;2023-04-24T10:24:00;14.80;91.70
4755;DHT22;2391;47.212;7.542;2023-04-24T10:26:28;14.80;90.70
4755;DHT22;2391;47.212;7.542;2023-04-24T10:28:56;14.70;91.30
4755;DHT22;2391;47.212;7.542;2023-04-24T10:31:23;14.70;91.40
4755;DHT22;2391;47.212;7.542;2023-04-24T10:33:49;14.60;91.10
4755;DHT22;2391;47.212;7.542;2023-04-24T10:36:24;14.50;90.90
4755;DHT22;2391;47.212;7.542;2023-04-24T10:38:52;14.50;91.10
4755;DHT22;2391;47.212;7.542;2023-04-24T10:41:20;14.50;91.70
4755;DHT22;2391;47.212;7.542;2023-04-24T10:43:48;14.60;92.10
4755;DHT22;2391;47.212;7.542;2023-04-24T10:46:22;14.50;91.80
4755;DHT22;2391;47.212;7.542;2023-04-24T10:48:54;14.30;92.50
4755;DHT22;2391;47.212;7.542;2023-04-24T10:51:22;14.30;91.90
4755;DHT22;2391;47.212;7.542;2023-04-24T10:53:50;14.40;91.40
4755;DHT22;2391;47.212;7.542;2023-04-24T10:56:16;14.60;90.70
4755;DHT22;2391;47.212;7.542;2023-04-24T10:58:51;14.60;90.80
4755;DHT22;2391;47.212;7.542;2023-04-24T11:01:26;14.70;90.40
4755;DHT22;2391;47.212;7.542;2023-04-24T11:03:57;14.80;90.70
4755;DHT22;2391;47.212;7.542;2023-04-24T11:06:34;14.90;90.10
4755;DHT22;2391;47.212;7.542;2023-04-24T11:09:06;14.80;90.30
4755;DHT22;2391;47.212;7.542;2023-04-24T11:11:34;14.70;91.00
4755;DHT22;2391;47.212;7.542;2023-04-24T11:14:02;14.70;91.20
4755;DHT22;2391;47.212;7.542;2023-04-24T11:16:35;14.70;90.80
4755;DHT22;2391;47.212;7.542;2023-04-24T11:19:17;14.70;90.60
4755;DHT22;2391;47.212;7.542;2023-04-24T11:21:40;14.70;90.40
4755;DHT22;2391;47.212;7.542;2023-04-24T11:24:28;14.70;90.60
4755;DHT22;2391;47.212;7.542;2023-04-24T11:26:55;14.60;90.30
4755;DHT22;2391;47.212;7.542;2023-04-24T11:29:22;14.50;90.60
4755;DHT22;2391;47.212;7.542;2023-04-24T11:31:48;14.50;90.10
4755;DHT22;2391;47.212;7.542;2023-04-24T11:34:17;14.50;89.50
4755;DHT22;2391;47.212;7.542;2023-04-24T11:36:46;14.60;89.90
4755;DHT22;2391;47.212;7.542;2023-04-24T11:39:14;14.60;89.70
4755;DHT22;2391;47.212;7.542;2023-04-24T11:41:40;14.70;89.10
4755;DHT22;2391;47.212;7.542;2023-04-24T11:44:07;14.70;88.50
4755;DHT22;2391;47.212;7.542;2023-04-24T11:46:33;14.70;88.30
4755;DHT22;2391;47.212;7.542;2023-04-24T11:48:59;14.70;88.30
4755;DHT22;2391;47.212;7.542;2023-04-24T11:51:27;14.80;89.20
4755;DHT22;2391;47.212;7.542;2023-04-24T11:53:55;14.80;89.10
4755;DHT22;2391;47.212;7.542;2023-04-24T11:56:22;14.80;87.90
4755;DHT22;2391;47.212;7.542;2023-04-24T11:58:48;14.80;88.20
4755;DHT22;2391;47.212;7.542;2023-04-24T12:01:14;14.80;89.40
4755;DHT22;2391;47.212;7.542;2023-04-24T12:03:40;14.80;89.50
4755;DHT22;2391;47.212;7.542;2023-04-24T12:06:09;14.80;88.20
4755;DHT22;2391;47.212;7.542;2023-04-24T12:08:36;14.80;88.20
4755;DHT22;2391;47.212;7.542;2023-04-24T12:11:04;14.80;87.90
4755;DHT22;2391;47.212;7.542;2023-04-24T12:13:30;14.80;88.30
4755;DHT22;2391;47.212;7.542;2023-04-24T12:15:57;14.90;88.50
4755;DHT22;2391;47.212;7.542;2023-04-24T12:18:23;15.00;88.40
4755;DHT22;2391;47.212;7.542;2023-04-24T12:20:49;15.00;89.20
4755;DHT22;2391;47.212;7.542;2023-04-24T12:23:16;15.20;89.70
4755;DHT22;2391;47.212;7.542;2023-04-24T12:25:43;15.30;88.00
4755;DHT22;2391;47.212;7.542;2023-04-24T12:28:11;15.30;88.80
4755;DHT22;2391;47.212;7.542;2023-04-24T12:30:48;15.30;89.90
4755;DHT22;2391;47.212;7.542;2023-04-24T12:33:18;15.40;89.40
4755;DHT22;2391;47.212;7.542;2023-04-24T12:35:45;15.40;88.60
4755;DHT22;2391;47.212;7.542;2023-04-24T12:38:12;15.50;88.60
4755;DHT22;2391;47.212;7.542;2023-04-24T12:40:40;15.50;87.50
4755;DHT22;2391;47.212;7.542;2023-04-24T12:43:20;15.40;87.60
4755;DHT22;2391;47.212;7.542;2023-04-24T12:45:47;15.40;89.00
4755;DHT22;2391;47.212;7.542;2023-04-24T12:48:13;15.30;86.80
4755;DHT22;2391;47.212;7.542;2023-04-24T12:50:42;15.20;88.50
4755;DHT22;2391;47.212;7.542;2023-04-24T12:53:09;15.10;89.50
4755;DHT22;2391;47.212;7.542;2023-04-24T12:55:37;15.10;89.90
4755;DHT22;2391;47.212;7.542;2023-04-24T12:58:03;15.20;89.90
4755;DHT22;2391;47.212;7.542;2023-04-24T13:00:28;15.20;89.60
4755;DHT22;2391;47.212;7.542;2023-04-24T13:02:54;15.30;90.00
4755;DHT22;2391;47.212;7.542;2023-04-24T13:05:20;15.40;89.50
4755;DHT22;2391;47.212;7.542;2023-04-24T13:07:46;15.60;90.30
4755;DHT22;2391;47.212;7.542;2023-04-24T13:10:12;15.70;89.20
4755;DHT22;2391;47.212;7.542;2023-04-24T13:12:39;15.90;88.20
4755;DHT22;2391;47.212;7.542;2023-04-24T13:15:06;16.00;86.80
4755;DHT22;2391;47.212;7.542;2023-04-24T13:17:32;16.00;84.40
4755;DHT22;2391;47.212;7.542;2023-04-24T13:19:58;16.00;85.20
4755;DHT22;2391;47.212;7.542;2023-04-24T13:22:24;15.90;85.70
4755;DHT22;2391;47.212;7.542;2023-04-24T13:24:50;15.90;84.50
4755;DHT22;2391;47.212;7.542;2023-04-24T13:27:17;15.80;85.60
4755;DHT22;2391;47.212;7.542;2023-04-24T13:29:43;15.80;87.40
4755;DHT22;2391;47.212;7.542;2023-04-24T13:32:09;15.80;86.20
4755;DHT22;2391;47.212;7.542;2023-04-24T13:34:35;15.70;87.00
4755;DHT22;2391;47.212;7.542;2023-04-24T13:37:03;15.60;87.00
4755;DHT22;2391;47.212;7.542;2023-04-24T13:39:33;15.40;88.60
4755;DHT22;2391;47.212;7.542;2023-04-24T13:41:59;15.30;89.30
4755;DHT22;2391;47.212;7.542;2023-04-24T13:44:25;15.20;87.80
4755;DHT22;2391;47.212;7.542;2023-04-24T13:46:52;15.10;88.10
4755;DHT22;2391;47.212;7.542;2023-04-24T13:49:20;15.10;88.50
4755;DHT22;2391;47.212;7.542;2023-04-24T13:51:47;15.10;89.30
4755;DHT22;2391;47.212;7.542;2023-04-24T13:54:13;15.30;87.90
4755;DHT22;2391;47.212;7.542;2023-04-24T13:56:40;15.30;88.10
4755;DHT22;2391;47.212;7.542;2023-04-24T13:59:05;15.30;87.60
4755;DHT22;2391;47.212;7.542;2023-04-24T14:01:35;15.30;85.80
4755;DHT22;2391;47.212;7.542;2023-04-24T14:04:00;15.30;84.20
4755;DHT22;2391;47.212;7.542;2023-04-24T14:06:26;15.20;84.10
4755;DHT22;2391;47.212;7.542;2023-04-24T14:08:52;15.20;84.50
4755;DHT22;2391;47.212;7.542;2023-04-24T14:11:19;15.20;85.70
4755;DHT22;2391;47.212;7.542;2023-04-24T14:13:45;15.20;84.60
4755;DHT22;2391;47.212;7.542;2023-04-24T14:16:11;15.10;83.90
4755;DHT22;2391;47.212;7.542;2023-04-24T14:18:37;15.10;83.90
4755;DHT22;2391;47.212;7.542;2023-04-24T14:21:04;15.00;85.00
4755;DHT22;2391;47.212;7.542;2023-04-24T14:23:29;15.00;85.50
4755;DHT22;2391;47.212;7.542;2023-04-24T14:25:57;15.00;86.60
4755;DHT22;2391;47.212;7.542;2023-04-24T14:28:24;14.90;87.00
4755;DHT22;2391;47.212;7.542;2023-04-24T14:30:50;14.80;87.40
4755;DHT22;2391;47.212;7.542;2023-04-24T14:33:16;15.00;87.90
4755;DHT22;2391;47.212;7.542;2023-04-24T14:35:42;15.10;87.50
4755;DHT22;2391;47.212;7.542;2023-04-24T14:38:08;15.20;87.00
4755;DHT22;2391;47.212;7.542;2023-04-24T14:40:34;15.30;86.60
4755;DHT22;2391;47.212;7.542;2023-04-24T14:43:00;15.40;86.10
4755;DHT22;2391;47.212;7.542;2023-04-24T14:45:26;15.40;86.30
4755;DHT22;2391;47.212;7.542;2023-04-24T14:47:53;15.40;85.50
4755;DHT22;2391;47.212;7.542;2023-04-24T14:50:20;15.30;86.00
4755;DHT22;2391;47.212;7.542;2023-04-24T14:52:45;15.30;87.10
4755;DHT22;2391;47.212;7.542;2023-04-24T14:55:12;15.30;85.80
4755;DHT22;2391;47.212;7.542;2023-04-24T14:57:38;15.30;86.50
4755;DHT22;2391;47.212;7.542;2023-04-24T15:00:05;15.30;86.80
4755;DHT22;2391;47.212;7.542;2023-04-24T15:02:33;15.30;86.60
4755;DHT22;2391;47.212;7.542;2023-04-24T15:04:59;15.30;85.60
4755;DHT22;2391;47.212;7.542;2023-04-24T15:07:25;15.30;85.70
4755;DHT22;2391;47.212;7.542;2023-04-24T15:09:51;15.40;86.40
4755;DHT22;2391;47.212;7.542;2023-04-24T15:12:16;15.50;87.30
4755;DHT22;2391;47.212;7.542;2023-04-24T15:14:42;15.50;85.90
4755;DHT22;2391;47.212;7.542;2023-04-24T15:17:08;15.60;85.80
4755;DHT22;2391;47.212;7.542;2023-04-24T15:19:34;15.70;86.20
4755;DHT22;2391;47.212;7.542;2023-04-24T15:22:00;15.70;86.20
4755;DHT22;2391;47.212;7.542;2023-04-24T15:24:25;15.90;85.30
4755;DHT22;2391;47.212;7.542;2023-04-24T15:26:51;15.90;83.70
4755;DHT22;2391;47.212;7.542;2023-04-24T15:29:17;15.90;82.20
4755;DHT22;2391;47.212;7.542;2023-04-24T15:31:43;15.80;82.10
4755;DHT22;2391;47.212;7.542;2023-04-24T15:34:08;15.70;81.90
4755;DHT22;2391;47.212;7.542;2023-04-24T15:36:34;15.60;83.00
4755;DHT22;2391;47.212;7.542;2023-04-24T15:39:03;15.60;83.30
4755;DHT22;2391;47.212;7.542;2023-04-24T15:41:28;15.50;82.80
4755;DHT22;2391;47.212;7.542;2023-04-24T15:43:54;15.30;83.50
4755;DHT22;2391;47.212;7.542;2023-04-24T15:46:20;15.20;83.70
4755;DHT22;2391;47.212;7.542;2023-04-24T15:48:46;15.20;84.20
4755;DHT22;2391;47.212;7.542;2023-04-24T15:51:12;15.20;83.60
4755;DHT22;2391;47.212;7.542;2023-04-24T15:53:38;15.20;82.40
4755;DHT22;2391;47.212;7.542;2023-04-24T15:56:04;15.20;81.90
4755;DHT22;2391;47.212;7.542;2023-04-24T15:58:30;15.20;81.70
4755;DHT22;2391;47.212;7.542;2023-04-24T16:00:55;15.10;80.60
4755;DHT22;2391;47.212;7.542;2023-04-24T16:03:21;15.00;81.60